createdAt,value
2023-03-02T00:01:27.671Z,21.30
2023-03-02T00:03:59.164Z,21.97
2023-03-02T00:06:27.364Z,22.60
2023-03-02T00:08:55.324Z,21.00
2023-03-02T00:11:24.636Z,22.07
2023-03-02T00:13:52.502Z,20.10
2023-03-02T00:16:20.493Z,18.97
2023-03-02T00:18:48.497Z,19.77
2023-03-02T00:21:16.419Z,19.40
2023-03-02T00:23:44.948Z,17.50
2023-03-02T00:26:12.883Z,21.50
2023-03-02T00:28:42.179Z,19.37
2023-03-02T00:31:10.203Z,20.53
2023-03-02T00:33:38.084Z,19.47
2023-03-02T00:36:06.641Z,19.73
2023-03-02T00:38:34.698Z,22.23
2023-03-02T00:41:02.588Z,19.13
2023-03-02T00:43:30.453Z,19.40
2023-03-02T00:45:59.745Z,19.17
2023-03-02T00:48:27.650Z,18.53
2023-03-02T00:50:55.542Z,19.33
2023-03-02T00:53:23.411Z,19.83
2023-03-02T00:55:55.569Z,20.37
2023-03-02T00:58:23.612Z,19.27
2023-03-02T01:00:51.503Z,20.77
2023-03-02T01:03:21.054Z,20.10
2023-03-02T01:05:49.312Z,19.00
2023-03-02T01:08:17.247Z,19.53
2023-03-02T01:10:45.123Z,20.60
2023-03-02T01:13:12.966Z,18.93
2023-03-02T01:15:40.968Z,20.47
2023-03-02T01:18:08.893Z,17.30
2023-03-02T01:20:38.129Z,20.17
2023-03-02T01:23:06.057Z,17.73
2023-03-02T01:25:33.953Z,18.13
2023-03-02T01:28:01.824Z,20.77
2023-03-02T01:30:29.907Z,18.90
2023-03-02T01:32:57.770Z,20.43
2023-03-02T01:35:25.667Z,21.10
2023-03-02T01:37:54.957Z,20.50
2023-03-02T01:40:22.829Z,19.33
2023-03-02T01:42:53.508Z,19.63
2023-03-02T01:45:45.757Z,19.77
2023-03-02T01:48:16.964Z,21.60
2023-03-02T01:50:45.231Z,18.77
2023-03-02T01:53:15.646Z,19.63
2023-03-02T01:56:01.527Z,22.23
2023-03-02T01:58:33.269Z,21.27
2023-03-02T02:01:02.019Z,19.13
2023-03-02T02:03:32.184Z,18.63
2023-03-02T02:06:07.357Z,21.63
2023-03-02T02:08:37.533Z,18.60
2023-03-02T02:11:06.560Z,19.83
2023-03-02T02:13:34.499Z,21.27
2023-03-02T02:16:02.406Z,18.73
2023-03-02T02:18:30.282Z,20.27
2023-03-02T02:20:58.434Z,20.70
2023-03-02T02:23:29.580Z,19.33
2023-03-02T02:26:18.636Z,19.40
2023-03-02T02:28:57.688Z,21.47
2023-03-02T02:31:31.860Z,21.80
2023-03-02T02:34:05.344Z,19.00
2023-03-02T02:36:38.736Z,20.40
2023-03-02T02:39:09.675Z,20.27
2023-03-02T02:41:41.571Z,20.17
2023-03-02T02:44:13.873Z,21.47
2023-03-02T02:46:41.788Z,19.47
2023-03-02T02:49:30.176Z,20.27
2023-03-02T02:51:58.493Z,21.27
2023-03-02T02:54:27.570Z,21.93
2023-03-02T02:56:58.447Z,22.23
2023-03-02T02:59:29.953Z,21.00
2023-03-02T03:01:58.837Z,19.90
2023-03-02T03:04:29.401Z,24.30
2023-03-02T03:07:00.110Z,20.87
2023-03-02T03:09:28.422Z,20.37
2023-03-02T03:12:00.089Z,21.20
2023-03-02T03:14:31.702Z,21.47
2023-03-02T03:16:59.625Z,21.57
2023-03-02T03:19:30.369Z,21.53
2023-03-02T03:22:00.685Z,21.33
2023-03-02T03:24:30.709Z,20.43
2023-03-02T03:27:00.792Z,22.10
2023-03-02T03:29:30.612Z,22.57
2023-03-02T03:31:59.918Z,21.73
2023-03-02T03:34:29.048Z,22.97
2023-03-02T03:37:01.700Z,23.23
2023-03-02T03:39:30.616Z,22.20
2023-03-02T03:42:00.542Z,21.67
2023-03-02T03:44:28.732Z,23.07
2023-03-02T03:46:56.926Z,23.00
2023-03-02T03:49:25.211Z,22.23
2023-03-02T03:51:53.373Z,21.70
2023-03-02T03:54:21.499Z,21.97
2023-03-02T03:56:51.535Z,24.73
2023-03-02T03:59:23.344Z,23.47
2023-03-02T04:01:54.318Z,23.73
2023-03-02T04:04:24.624Z,24.00
2023-03-02T04:06:53.665Z,22.57
2023-03-02T04:09:21.786Z,25.03
2023-03-02T04:11:51.724Z,24.43
2023-03-02T04:14:21.605Z,24.60
2023-03-02T04:16:49.473Z,25.73
2023-03-02T04:19:17.678Z,24.17
2023-03-02T04:21:49.660Z,25.20
2023-03-02T04:24:18.637Z,24.63
2023-03-02T04:26:47.582Z,24.57
2023-03-02T04:29:15.759Z,25.10
2023-03-02T04:31:45.390Z,23.23
2023-03-02T04:34:13.249Z,22.47
2023-03-02T04:36:42.085Z,24.83
2023-03-02T04:39:10.140Z,22.00
2023-03-02T04:41:38.226Z,22.40
2023-03-02T04:44:06.372Z,23.70
2023-03-02T04:46:35.288Z,22.97
2023-03-02T04:49:05.429Z,24.10
2023-03-02T04:51:36.729Z,23.00
2023-03-02T04:54:06.968Z,23.07
2023-03-02T04:56:35.554Z,22.23
2023-03-02T04:59:03.597Z,21.97
2023-03-02T05:01:31.833Z,23.83
2023-03-02T05:04:02.430Z,22.80
2023-03-02T05:06:32.317Z,22.67
2023-03-02T05:09:00.686Z,26.30
2023-03-02T05:11:29.168Z,25.30
2023-03-02T05:13:59.138Z,22.43
2023-03-02T05:16:29.600Z,24.73
2023-03-02T05:18:57.595Z,22.53
2023-03-02T05:21:25.991Z,23.47
2023-03-02T05:23:55.265Z,23.50
2023-03-02T05:26:23.856Z,24.50
2023-03-02T05:28:53.960Z,27.73
2023-03-02T05:31:24.340Z,23.43
2023-03-02T05:33:52.325Z,22.40
2023-03-02T05:36:22.910Z,24.37
2023-03-02T05:38:51.147Z,23.17
2023-03-02T05:41:20.790Z,23.87
2023-03-02T05:43:48.660Z,26.17
2023-03-02T05:46:17.548Z,26.50
2023-03-02T05:48:45.438Z,25.73
2023-03-02T05:51:13.846Z,22.23
2023-03-02T05:53:41.719Z,23.00
2023-03-02T05:56:10.142Z,22.43
2023-03-02T05:58:39.348Z,24.07
2023-03-02T06:01:10.183Z,24.40
2023-03-02T06:03:38.126Z,24.73
2023-03-02T06:06:06.333Z,21.67
2023-03-02T06:08:34.210Z,23.50
2023-03-02T06:11:02.056Z,22.50
2023-03-02T06:13:29.920Z,23.67
2023-03-02T06:15:59.210Z,24.07
2023-03-02T06:18:27.263Z,23.03
2023-03-02T06:20:55.109Z,20.47
2023-03-02T06:23:23.073Z,21.10
2023-03-02T06:25:50.963Z,24.23
2023-03-02T06:28:20.488Z,23.40
2023-03-02T06:30:49.776Z,19.93
2023-03-02T06:33:21.375Z,22.40
2023-03-02T06:35:50.478Z,22.53
2023-03-02T06:38:18.914Z,21.63
2023-03-02T06:40:47.092Z,20.87
2023-03-02T06:43:17.443Z,19.43
2023-03-02T06:45:45.340Z,21.60
2023-03-02T06:48:13.172Z,21.57
2023-03-02T06:50:42.403Z,21.23
2023-03-02T06:53:10.281Z,21.53
2023-03-02T06:55:38.139Z,18.93
2023-03-02T06:58:05.981Z,23.30
2023-03-02T07:00:33.846Z,20.53
2023-03-02T07:03:08.828Z,19.60
2023-03-02T07:05:36.916Z,18.87
2023-03-02T07:08:06.457Z,20.20
2023-03-02T07:10:34.596Z,20.33
2023-03-02T07:13:02.414Z,18.43
2023-03-02T07:15:30.408Z,21.47
2023-03-02T07:17:58.264Z,18.80
2023-03-02T07:20:26.183Z,18.63
2023-03-02T07:22:54.055Z,19.00
2023-03-02T07:25:23.349Z,19.83
2023-03-02T07:27:51.233Z,18.33
2023-03-02T07:30:21.297Z,18.67
2023-03-02T07:32:49.273Z,19.53
2023-03-02T07:35:18.209Z,19.53
2023-03-02T07:37:46.140Z,19.30
2023-03-02T07:40:15.031Z,20.83
2023-03-02T07:42:44.248Z,19.07
2023-03-02T07:45:16.888Z,18.87
2023-03-02T07:47:44.789Z,17.87
2023-03-02T07:50:13.472Z,18.73
2023-03-02T07:52:41.369Z,18.17
2023-03-02T07:55:10.185Z,18.90
2023-03-02T07:57:38.410Z,18.63
2023-03-02T08:00:09.600Z,19.70
2023-03-02T08:02:37.587Z,19.50
2023-03-02T08:05:06.307Z,18.50
2023-03-02T08:07:34.214Z,19.23
2023-03-02T08:10:02.170Z,18.60
2023-03-02T08:12:30.312Z,20.07
2023-03-02T08:14:58.280Z,19.40
2023-03-02T08:17:27.525Z,18.77
2023-03-02T08:19:55.389Z,22.40
2023-03-02T08:22:23.279Z,20.70
2023-03-02T08:24:51.153Z,19.27
2023-03-02T08:27:19.034Z,20.50
2023-03-02T08:29:46.950Z,18.53
2023-03-02T08:32:14.855Z,19.33
2023-03-02T08:34:44.077Z,16.97
2023-03-02T08:37:11.998Z,21.97
2023-03-02T08:39:39.935Z,18.83
2023-03-02T08:42:07.789Z,19.87
2023-03-02T08:44:35.675Z,18.73
2023-03-02T08:47:03.638Z,18.93
2023-03-02T08:49:31.597Z,19.10
2023-03-02T08:52:01.304Z,20.77
2023-03-02T08:54:29.288Z,19.17
2023-03-02T08:56:57.175Z,18.37
2023-03-02T08:59:25.244Z,17.87
2023-03-02T09:01:53.120Z,17.43
2023-03-02T09:04:21.196Z,18.87
2023-03-02T09:06:49.115Z,18.97
2023-03-02T09:09:18.540Z,17.03
2023-03-02T09:11:46.509Z,19.17
2023-03-02T09:14:14.723Z,21.67
2023-03-02T09:16:42.643Z,18.73
2023-03-02T09:19:11.226Z,18.10
2023-03-02T09:21:39.111Z,18.97
2023-03-02T09:24:07.401Z,17.93
2023-03-02T09:26:38.244Z,18.60
2023-03-02T09:29:07.174Z,17.60
2023-03-02T09:31:35.698Z,17.47
2023-03-02T09:34:03.913Z,17.60
2023-03-02T09:36:32.820Z,19.20
2023-03-02T09:39:00.696Z,17.17
2023-03-02T09:42:04.832Z,17.47
2023-03-02T09:45:14.840Z,19.50
2023-03-02T09:47:51.837Z,18.67
2023-03-02T09:50:32.708Z,19.20
2023-03-02T09:53:35.682Z,19.07
2023-03-02T09:56:04.838Z,18.17
2023-03-02T09:58:37.386Z,19.77
2023-03-02T10:01:16.483Z,18.57
2023-03-02T10:03:51.663Z,19.83
2023-03-02T10:06:19.773Z,19.43
2023-03-02T10:08:50.495Z,19.70
2023-03-02T10:11:24.107Z,18.23
2023-03-02T10:13:58.418Z,19.67
2023-03-02T10:16:35.648Z,19.47
2023-03-02T10:19:10.670Z,20.30
2023-03-02T10:21:42.449Z,20.20
2023-03-02T10:24:18.911Z,20.43
2023-03-02T10:26:50.524Z,19.90
2023-03-02T10:29:33.971Z,20.30
2023-03-02T10:32:11.839Z,18.27
2023-03-02T10:34:39.950Z,19.43
2023-03-02T10:37:14.619Z,21.10
2023-03-02T10:39:42.570Z,19.83
2023-03-02T10:42:16.803Z,18.73
2023-03-02T10:44:49.341Z,19.63
2023-03-02T10:47:24.081Z,19.87
2023-03-02T10:49:53.346Z,19.40
2023-03-02T10:52:23.762Z,19.47
2023-03-02T10:55:02.439Z,19.40
2023-03-02T10:57:36.075Z,17.80
2023-03-02T11:00:07.186Z,16.63
2023-03-02T11:02:37.695Z,18.70
2023-03-02T11:05:29.922Z,17.37
2023-03-02T11:07:59.543Z,20.13
2023-03-02T11:10:31.836Z,17.73
2023-03-02T11:13:00.994Z,16.47
2023-03-02T11:15:35.782Z,16.93
2023-03-02T11:18:09.333Z,17.77
2023-03-02T11:20:40.821Z,16.93
2023-03-02T11:23:19.612Z,18.27
2023-03-02T11:25:53.356Z,17.60
2023-03-02T11:28:36.000Z,16.63
2023-03-02T11:31:08.144Z,17.00
2023-03-02T11:33:43.834Z,18.00
2023-03-02T11:36:19.558Z,19.80
2023-03-02T11:38:51.597Z,19.00
2023-03-02T11:41:29.903Z,15.57
2023-03-02T11:44:01.525Z,18.17
2023-03-02T11:46:31.616Z,16.57
2023-03-02T11:49:05.332Z,21.03
2023-03-02T11:51:37.874Z,18.03
2023-03-02T11:54:12.619Z,17.13
2023-03-02T11:56:41.145Z,18.00
2023-03-02T11:59:17.841Z,16.03
2023-03-02T12:01:49.120Z,17.57
2023-03-02T12:04:29.882Z,16.07
2023-03-02T12:06:57.932Z,18.57
2023-03-02T12:09:37.669Z,16.87
2023-03-02T12:12:34.266Z,17.87
2023-03-02T12:15:02.494Z,17.10
2023-03-02T12:17:36.677Z,16.67
2023-03-02T12:20:28.626Z,17.07
2023-03-02T12:23:09.441Z,16.37
2023-03-02T12:25:41.895Z,15.93
2023-03-02T12:28:27.430Z,17.30
2023-03-02T12:31:05.094Z,17.10
2023-03-02T12:33:33.007Z,18.00
2023-03-02T12:36:13.433Z,18.27
2023-03-02T12:38:47.942Z,16.27
2023-03-02T12:41:57.704Z,17.00
2023-03-02T12:44:46.061Z,16.40
2023-03-02T12:47:17.617Z,16.97
2023-03-02T12:49:51.338Z,18.60
2023-03-02T12:52:32.996Z,17.90
2023-03-02T12:55:03.221Z,16.27
2023-03-02T12:57:31.695Z,18.40
2023-03-02T13:00:02.636Z,17.30
2023-03-02T13:02:31.868Z,15.90
2023-03-02T13:05:01.916Z,17.57
2023-03-02T13:07:37.376Z,17.17
2023-03-02T13:10:10.913Z,17.67
2023-03-02T13:12:45.787Z,17.00
2023-03-02T13:15:17.131Z,17.70
2023-03-02T13:17:46.095Z,17.17
2023-03-02T13:20:15.721Z,22.43
2023-03-02T13:22:45.215Z,17.17
2023-03-02T13:25:23.809Z,17.60
2023-03-02T13:27:56.630Z,18.17
2023-03-02T13:30:27.067Z,18.13
2023-03-02T13:33:00.928Z,17.57
2023-03-02T13:35:31.117Z,17.37
2023-03-02T13:38:04.564Z,19.43
2023-03-02T13:40:42.486Z,17.60
2023-03-02T13:43:34.667Z,19.13
2023-03-02T13:46:04.044Z,22.03
2023-03-02T13:48:32.506Z,22.23
2023-03-02T13:51:02.919Z,19.33
2023-03-02T13:53:34.782Z,20.47
2023-03-02T13:56:02.896Z,19.77
2023-03-02T13:58:38.372Z,20.40
2023-03-02T14:01:07.760Z,19.90
2023-03-02T14:03:35.749Z,18.97
2023-03-02T14:06:03.744Z,21.90
2023-03-02T14:08:33.146Z,21.43
2023-03-02T14:11:01.889Z,21.53
2023-03-02T14:13:36.506Z,17.67
2023-03-02T14:16:04.837Z,19.90
2023-03-02T14:18:39.070Z,18.67
2023-03-02T14:21:11.774Z,18.43
2023-03-02T14:23:42.019Z,17.30
2023-03-02T14:26:31.851Z,18.53
2023-03-02T14:29:05.696Z,17.13
2023-03-02T14:31:34.320Z,18.60
2023-03-02T14:34:02.526Z,16.73
2023-03-02T14:36:33.397Z,17.80
2023-03-02T14:39:05.518Z,19.47
2023-03-02T14:41:51.208Z,18.40
2023-03-02T14:44:21.115Z,19.23
2023-03-02T14:46:49.000Z,16.53
2023-03-02T14:49:16.913Z,13.73
2023-03-02T14:51:50.301Z,15.47
2023-03-02T14:54:21.048Z,15.37
2023-03-02T14:56:50.466Z,16.00
2023-03-02T14:59:18.845Z,13.73
2023-03-02T15:01:46.762Z,16.60
2023-03-02T15:04:14.628Z,12.60
2023-03-02T15:06:44.497Z,15.77
2023-03-02T15:09:13.168Z,15.27
2023-03-02T15:11:42.482Z,14.67
2023-03-02T15:14:10.317Z,14.83
2023-03-02T15:16:39.166Z,15.40
2023-03-02T15:19:07.142Z,12.60
2023-03-02T15:21:35.217Z,15.87
2023-03-02T15:24:03.196Z,20.07
2023-03-02T15:26:31.113Z,13.50
2023-03-02T15:29:00.320Z,16.37
2023-03-02T15:31:28.667Z,18.13
2023-03-02T15:33:56.891Z,16.30
2023-03-02T15:36:25.759Z,14.23
2023-03-02T15:38:53.950Z,16.10
2023-03-02T15:41:21.910Z,18.23
2023-03-02T15:43:53.609Z,17.43
2023-03-02T15:46:23.563Z,18.20
2023-03-02T15:48:52.185Z,18.00
2023-03-02T15:51:20.625Z,16.37
2023-03-02T15:53:48.818Z,15.63
2023-03-02T15:56:17.375Z,16.30
2023-03-02T15:58:48.155Z,18.77
2023-03-02T16:01:16.554Z,15.67
2023-03-02T16:03:46.539Z,17.80
2023-03-02T16:06:15.754Z,22.53
2023-03-02T16:08:43.810Z,19.03
2023-03-02T16:11:11.866Z,25.00
2023-03-02T16:13:39.733Z,20.33
2023-03-02T16:16:08.233Z,21.03
2023-03-02T16:18:36.246Z,19.00
2023-03-02T16:21:05.579Z,17.07
2023-03-02T16:23:33.694Z,19.77
2023-03-02T16:26:08.868Z,20.30
2023-03-02T16:28:36.907Z,17.67
2023-03-02T16:31:05.782Z,19.70
2023-03-02T16:33:33.969Z,22.30
2023-03-02T16:36:01.822Z,20.07
2023-03-02T16:38:31.087Z,18.53
2023-03-02T16:40:59.037Z,18.70
2023-03-02T16:43:27.185Z,21.23
2023-03-02T16:45:55.463Z,19.87
2023-03-02T16:48:23.445Z,19.83
2023-03-02T16:50:56.826Z,18.57
2023-03-02T16:53:24.888Z,19.53
2023-03-02T16:55:54.135Z,17.43
2023-03-02T16:58:22.011Z,19.33
2023-03-02T17:00:50.119Z,21.67
2023-03-02T17:03:18.421Z,18.97
2023-03-02T17:05:46.364Z,16.77
2023-03-02T17:08:16.360Z,19.90
2023-03-02T17:10:44.931Z,21.10
2023-03-02T17:13:15.623Z,18.47
2023-03-02T17:15:44.223Z,18.70
2023-03-02T17:18:12.423Z,18.70
2023-03-02T17:20:40.667Z,19.63
2023-03-02T17:23:08.538Z,20.67
2023-03-02T17:25:36.468Z,20.57
2023-03-02T17:28:04.445Z,21.23
2023-03-02T17:30:34.460Z,22.67
2023-03-02T17:33:02.396Z,20.60
2023-03-02T17:35:30.314Z,22.53
2023-03-02T17:37:58.178Z,20.87
2023-03-02T17:40:26.134Z,25.77
2023-03-02T17:42:56.185Z,19.37
2023-03-02T17:45:29.670Z,20.33
2023-03-02T17:47:59.736Z,18.10
2023-03-02T17:50:28.103Z,20.57
2023-03-02T17:52:56.422Z,17.53
2023-03-02T17:55:24.303Z,22.83
2023-03-02T17:57:52.195Z,37.80
2023-03-02T18:00:22.569Z,28.27
2023-03-02T18:02:51.344Z,40.73
2023-03-02T18:05:21.552Z,24.60
2023-03-02T18:07:50.189Z,28.57
2023-03-02T18:10:17.988Z,29.10
2023-03-02T18:12:45.993Z,25.87
2023-03-02T18:15:13.973Z,26.10
2023-03-02T18:17:41.800Z,25.53
2023-03-02T18:20:11.058Z,27.97
2023-03-02T18:22:40.335Z,29.83
2023-03-02T18:25:08.700Z,29.63
2023-03-02T18:27:36.626Z,35.03
2023-03-02T18:30:04.922Z,32.20
2023-03-02T18:32:32.867Z,26.20
2023-03-02T18:35:00.817Z,28.27
2023-03-02T18:37:28.677Z,28.20
2023-03-02T18:39:58.110Z,28.43
2023-03-02T18:42:25.953Z,25.90
2023-03-02T18:44:53.849Z,25.93
2023-03-02T18:47:21.894Z,27.50
2023-03-02T18:49:49.783Z,25.67
2023-03-02T18:52:17.691Z,29.13
2023-03-02T18:54:47.422Z,24.63
2023-03-02T18:57:16.746Z,23.03
2023-03-02T18:59:44.637Z,24.87
2023-03-02T19:02:14.788Z,26.60
2023-03-02T19:04:42.839Z,25.43
2023-03-02T19:07:10.950Z,22.07
2023-03-02T19:09:38.863Z,22.47
2023-03-02T19:12:07.087Z,22.90
2023-03-02T19:14:36.348Z,24.03
2023-03-02T19:17:04.354Z,22.23
2023-03-02T19:19:32.218Z,23.70
2023-03-02T19:22:01.094Z,20.37
2023-03-02T19:24:29.074Z,24.60
2023-03-02T19:26:56.982Z,21.80
2023-03-02T19:29:24.874Z,23.63
2023-03-02T19:31:55.731Z,22.43
2023-03-02T19:34:24.174Z,24.87
2023-03-02T19:36:52.145Z,22.83
2023-03-02T19:39:20.038Z,23.47
2023-03-02T19:41:47.917Z,22.83
2023-03-02T19:44:16.543Z,22.73
2023-03-02T19:46:44.436Z,27.43
2023-03-02T19:49:13.672Z,26.93
2023-03-02T19:51:41.530Z,26.67
2023-03-02T19:54:09.822Z,29.43
2023-03-02T19:56:43.140Z,25.57
2023-03-02T19:59:12.178Z,41.37
2023-03-02T20:01:40.036Z,27.73
2023-03-02T20:04:07.879Z,33.47
2023-03-02T20:06:37.510Z,30.67
2023-03-02T20:09:08.204Z,33.53
2023-03-02T20:11:38.329Z,29.60
2023-03-02T20:14:06.186Z,30.60
2023-03-02T20:16:36.438Z,33.67
2023-03-02T20:19:05.682Z,29.87
2023-03-02T20:21:35.283Z,28.50
2023-03-02T20:24:05.118Z,31.90
2023-03-02T20:26:33.396Z,27.00
2023-03-02T20:29:03.665Z,26.53
2023-03-02T20:31:33.541Z,27.70
2023-03-02T20:34:02.437Z,28.10
2023-03-02T20:36:32.700Z,29.00
2023-03-02T20:39:05.508Z,31.73
2023-03-02T20:41:35.232Z,28.83
2023-03-02T20:44:03.196Z,31.90
2023-03-02T20:46:34.492Z,31.57
2023-03-02T20:49:03.115Z,32.83
2023-03-02T20:51:31.992Z,34.77
2023-03-02T20:54:00.423Z,32.97
2023-03-02T20:56:28.537Z,37.03
2023-03-02T20:58:57.874Z,33.17
2023-03-02T21:01:26.276Z,32.67
2023-03-02T21:03:54.293Z,33.50
2023-03-02T21:06:22.366Z,28.53
2023-03-02T21:08:50.437Z,33.00
2023-03-02T21:11:21.156Z,30.07
2023-03-02T21:13:50.178Z,26.53
2023-03-02T21:16:22.710Z,28.57
2023-03-02T21:18:50.690Z,30.73
2023-03-02T21:21:20.169Z,33.33
2023-03-02T21:23:51.333Z,34.07
2023-03-02T21:26:19.482Z,32.07
2023-03-02T21:28:47.555Z,30.40
2023-03-02T21:31:18.515Z,28.07
2023-03-02T21:33:49.613Z,30.63
2023-03-02T21:36:21.930Z,27.67
2023-03-02T21:38:49.952Z,30.03
2023-03-02T21:41:18.265Z,29.23
2023-03-02T21:43:46.429Z,27.77
2023-03-02T21:46:15.962Z,30.87
2023-03-02T21:48:44.068Z,31.03
2023-03-02T21:51:14.380Z,29.73
2023-03-02T21:53:42.462Z,28.73
2023-03-02T21:56:10.731Z,28.40
2023-03-02T21:58:39.728Z,32.30
2023-03-02T22:01:07.750Z,29.10
2023-03-02T22:03:35.753Z,27.67
2023-03-02T22:06:03.615Z,32.77
2023-03-02T22:08:35.320Z,29.20
2023-03-02T22:11:03.866Z,30.27
2023-03-02T22:13:33.530Z,34.37
2023-03-02T22:16:13.658Z,32.13
2023-03-02T22:18:42.945Z,30.93
2023-03-02T22:21:31.696Z,30.73
2023-03-02T22:24:13.566Z,30.77
2023-03-02T22:26:43.606Z,31.97
2023-03-02T22:29:16.234Z,30.63
2023-03-02T22:31:47.656Z,30.97
2023-03-02T22:34:20.126Z,28.83
2023-03-02T22:36:48.477Z,28.17
2023-03-02T22:39:31.699Z,29.00
2023-03-02T22:42:06.321Z,27.70
2023-03-02T22:44:34.455Z,29.63
2023-03-02T22:47:03.410Z,27.77
2023-03-02T22:49:31.307Z,25.63
2023-03-02T22:52:02.432Z,28.40
2023-03-02T22:54:38.181Z,29.07
2023-03-02T22:57:27.111Z,27.43
2023-03-02T23:00:05.755Z,29.47
2023-03-02T23:02:41.550Z,28.13
2023-03-02T23:05:26.243Z,28.60
2023-03-02T23:08:01.615Z,26.73
2023-03-02T23:10:30.967Z,26.77
2023-03-02T23:12:58.835Z,25.13
2023-03-02T23:15:26.720Z,25.60
2023-03-02T23:17:54.663Z,26.17
2023-03-02T23:20:23.944Z,22.17
2023-03-02T23:22:51.992Z,26.23
2023-03-02T23:25:20.031Z,25.43
2023-03-02T23:27:49.362Z,25.07
2023-03-02T23:30:20.627Z,24.70
2023-03-02T23:32:48.661Z,28.90
2023-03-02T23:35:16.586Z,24.83
2023-03-02T23:37:44.993Z,25.13
2023-03-02T23:40:13.575Z,26.90
2023-03-02T23:42:41.494Z,27.10
2023-03-02T23:45:11.360Z,26.57
2023-03-02T23:47:39.256Z,25.93
2023-03-02T23:50:08.814Z,26.60
2023-03-02T23:52:36.719Z,25.70
2023-03-02T23:55:04.826Z,25.73
2023-03-02T23:57:32.870Z,23.40
